• Join FlightAware (Why Join?)
  • Login
  • US Flag 
07:50PM EDT


 

Airport Tracker/Info


-or-


 

Live Flight TrackerFlight Track Log ✈ SKW5564 ✈ 05-May-2013 ✈ KSFO - KLAS

Flight Track Log - Related Links

Times and Time Zones

All times are in EDT time to prevent confusion due to time zone crossing. See the SKW5564 flight status page for this flight to view local times or setup timezone preferences in your user account.

Time Position Orientation Groundspeed Altitude Reporting Facility
EDT Latitude Longitude Course Direction KTS MPH feet Rate Location/Type
05:20PM 37.6167 -122.3500 133° Southeast 169 194 1,000  Level Northern Cal TRACON
05:21PM 37.5992 -122.2964 112° Southeast 209 241 2,900 2,700 Climbing Oakland Center
05:23PM 37.4473 -122.4085 113° Southeast  Level FlightAware Approximate
05:23PM 37.5500 -122.1500 113° Southeast 250 288 9,000  Level Northern Cal TRACON
05:24PM 37.3917 -122.2792 130° Southeast  Level FlightAware Approximate
05:25PM 37.3074 -122.1755 136° Southeast  Level FlightAware Approximate
05:25PM 37.4411 -121.9997 132° Southeast 286 329 13,300  Level Oakland Center
05:26PM 37.2331 -122.0608 133° Southeast  Level FlightAware Approximate
05:27PM 37.3517 -121.8239 123° Southeast 313 360 17,600  Level Los Angeles Center
05:28PM 37.3200 -121.6639 104° East 355 409 20,000 1,860 Climbing Oakland Center
05:29PM 37.2914 -121.5397 106° East 368 423 21,800 1,620 Climbing Oakland Center
05:30PM 37.2619 -121.4136 106° East 377 434 23,400 1,560 Climbing Oakland Center
05:31PM 37.2331 -121.2819 105° East 389 448 25,000 1,560 Climbing Oakland Center
05:32PM 37.2025 -121.1497 106° East 395 455 26,600 1,500 Climbing Oakland Center
05:33PM 37.1711 -121.0175 107° East 398 458 28,100 1,320 Climbing Oakland Center
05:34PM 37.1403 -120.8822 106° East 404 465 29,300 1,140 Climbing Oakland Center
05:35PM 37.1061 -120.7456 107° East 415 478 30,500 1,140 Climbing Oakland Center
05:36PM 37.0792 -120.6058 104° East 424 488 31,700 1,080 Climbing Oakland Center
05:37PM 37.0942 -120.4244 84° East 444 511 32,700 600 Climbing Oakland Center
05:38PM 37.1139 -120.2703 81° East 450 518 33,000 120 Climbing Oakland Center
05:40PM 37.1319 -120.1203 81° East 440 506 33,000  Level Oakland Center
05:41PM 37.1508 -119.9686 81° East 441 507 33,000  Level Oakland Center
05:42PM 37.1675 -119.8192 82° East 434 499 33,000  Level Oakland Center
05:43PM 37.1842 -119.6775 82° East 435 501 33,000  Level Oakland Center
05:44PM 37.2053 -119.4928 82° East 446 513 33,000  Level Oakland Center
05:45PM 37.2231 -119.3394 82° East 446 513 33,000  Level Oakland Center
05:46PM 37.2400 -119.1889 82° East 436 502 33,000  Level Oakland Center
05:47PM 37.2564 -119.0367 82° East 441 507 33,000  Level Oakland Center
05:48PM 37.2731 -118.8822 82° East 445 512 33,000  Level Oakland Center
05:49PM 37.2869 -118.7347 83° East 427 491 33,000  Level Oakland Center
05:50PM 37.3019 -118.5900 83° East 422 486 33,000 180 Level Oakland Center
05:51PM 37.3197 -118.4247 82° East 430 495 33,400 480 Climbing Oakland Center
05:52PM 37.3356 -118.2717 83° East 440 506 34,000 600 Climbing Oakland Center
05:53PM 37.3522 -118.1164 82° East 446 513 34,700 480 Climbing Oakland Center
05:54PM 37.3664 -117.9575 84° East 454 522 35,000 120 Climbing Oakland Center
05:55PM 37.3819 -117.8011 83° East 455 524 35,000  Level Oakland Center
05:56PM 37.3964 -117.6511 83° East 443 510 35,000  Level Oakland Center
05:57PM 37.4139 -117.4653 83° East 445 512 35,000  Level Oakland Center
05:58PM 37.3975 -117.3064 97° East 460 529 35,000  Level Oakland Center
05:59PM 37.3278 -117.1881 127° Southeast 428 493 35,000  Level Oakland Center
06:00PM 37.2106 -117.0936 147° Southeast 422 486 35,000  Level Los Angeles Center
06:01PM 37.1114 -117.0119 147° Southeast 424 488 35,000  Level Los Angeles Center
06:02PM 37.0336 -116.9428 145° Southeast 422 486 35,000  Level Oakland Center
06:03PM 36.9375 -116.8617 146° Southeast 418 481 35,000 -240 Level Oakland Center
06:04PM 36.8242 -116.7678 146° Southeast 411 473 34,600 -1,260 Descending Oakland Center
06:05PM 36.7419 -116.6639 135° Southeast 424 488 32,500 -2,280 Descending Oakland Center
06:06PM 36.6653 -116.5575 132° Southeast 418 481 30,000 -2,400 Descending Oakland Center
06:07PM 36.5939 -116.4497 130° Southeast 411 473 27,700 -2,160 Descending Oakland Center
06:08PM 36.5178 -116.3433 132° Southeast 376 433 25,200 -1,980 Descending Los Angeles Center
06:09PM 36.4550 -116.2539 131° Southeast 353 406 23,200 -2,100 Descending Los Angeles Center
06:11PM 36.3772 -116.1461 132° Southeast 344 396 20,800 -2,040 Descending Los Angeles Center
06:12PM 36.3178 -116.0617 131° Southeast 328 377 19,100 -1,740 Descending Los Angeles Center
06:12PM 36.2931 -116.0344 138° Southeast 320 368 18,400 -1,920 Descending Los Angeles Center
06:13PM 36.2564 -115.9747 127° Southeast 317 365 17,100 -1,920 Descending Los Angeles Center
06:13PM 36.2261 -115.9414 138° Southeast 314 361 16,300 -1,140 Descending Los Angeles Center
06:14PM 36.1994 -115.8975 127° Southeast 304 350 16,000 -300 Descending Los Angeles Center
06:14PM 36.1542 -115.8556 143° Southeast 295 339 16,000 -720 Level Los Angeles Center
06:15PM 36.1331 -115.8269 132° Southeast 293 337 15,300 -2,040 Descending Los Angeles Center
06:15PM 36.0981 -115.7939 143° Southeast 293 337 14,200 -1,860 Descending Los Angeles Center
06:16PM 36.0700 -115.7642 139° Southeast 294 338 13,400 -1,920 Descending Los Angeles Center
06:16PM 36.0433 -115.7397 143° Southeast 277 319 12,400 -2,280 Descending Los Angeles Center
06:17PM 36.0039 -115.7003 141° Southeast 284 327 11,100 -1,320 Descending Los Angeles Center
06:17PM 35.9731 -115.6719 143° Southeast 281 323 11,000 -120 Descending Los Angeles Center
06:18PM 35.9439 -115.6408 139° Southeast 279 321 11,000  Level Los Angeles Center
06:18PM 35.9133 -115.6144 145° Southeast 273 314 11,000  Level Los Angeles Center
06:19PM 35.8789 -115.5781 139° Southeast 277 319 11,000 -120 Level Los Angeles Center
06:19PM 35.8556 -115.5561 143° Southeast 270 311 10,900 -240 Descending Los Angeles Center
06:20PM 35.8481 -115.5136 102° East 272 313 10,800 -600 Descending Los Angeles Center
06:20PM 35.8475 -115.4686 91° East 255 293 10,300 -1,020 Descending Los Angeles Center
06:21PM 35.8500 -115.4267 86° East 262 302 9,800 -1,620 Descending Los Angeles Center
06:21PM 35.8631 -115.3814 70° East 264 304 8,700 -2,460 Descending Los Angeles Center
06:22PM 35.9064 -115.3514 29° Northeast 275 316 7,300 -2,100 Descending Los Angeles Center
06:22PM 35.9381 -115.3383 18° North 289 333 6,600 -1,680 Descending Los Angeles Center
06:23PM 35.9817 -115.3186 20° North 284 327 5,600 -1,080 Descending Los Angeles Center
06:23PM 36.0092 -115.3072 19° North 271 312 5,500 -240 Descending Los Angeles Center
06:24PM 36.0619 -115.2828 21° North 284 327 5,400 -1,140 Descending Los Angeles Center
06:24PM 36.0689 -115.2744 44° Northeast 217 250 4,400 -1,860 Descending Los Angeles Center
06:25PM 36.0750 -115.2367 79° East 250 288 3,500 -1,200 Descending Los Angeles Center
06:25PM 36.0731 -115.2144 96° East 161 185 3,200 -540 Descending Los Angeles Center
06:26PM 36.0733 -115.1817 89° East 206 237 3,000 -300 Descending Los Angeles Center
06:28PM 36.0801 -115.1523 95° East  Level Estimated